createdAt,value
2022-10-05T00:03:22.626Z,60.32
2022-10-05T00:08:34.108Z,60.49
2022-10-05T00:13:36.632Z,60.70
2022-10-05T00:18:40.109Z,61.23
2022-10-05T00:23:42.801Z,61.00
2022-10-05T00:28:45.899Z,61.64
2022-10-05T00:33:48.538Z,62.04
2022-10-05T00:38:51.061Z,62.22
2022-10-05T00:44:31.010Z,61.85
2022-10-05T00:49:55.432Z,62.04
2022-10-05T00:55:22.634Z,62.57
2022-10-05T01:00:26.817Z,62.49
2022-10-05T01:05:51.008Z,62.36
2022-10-05T01:11:04.083Z,62.08
2022-10-05T01:16:14.766Z,62.84
2022-10-05T01:21:25.497Z,63.43
2022-10-05T01:26:46.812Z,62.88
2022-10-05T01:32:11.284Z,62.83
2022-10-05T01:37:32.613Z,63.39
2022-10-05T01:42:56.630Z,64.61
2022-10-05T01:48:09.577Z,64.22
2022-10-05T01:53:31.753Z,63.86
2022-10-05T01:59:16.182Z,63.68
2022-10-05T02:04:56.979Z,63.59
2022-10-05T02:10:18.084Z,63.19
2022-10-05T02:15:27.224Z,64.29
2022-10-05T02:20:34.260Z,63.82
2022-10-05T02:25:41.953Z,63.33
2022-10-05T02:30:54.173Z,63.36
2022-10-05T02:36:31.742Z,64.11
2022-10-05T02:41:44.790Z,64.52
2022-10-05T02:46:57.854Z,64.74
2022-10-05T02:52:38.556Z,64.43
2022-10-05T02:57:53.105Z,63.83
2022-10-05T03:03:23.570Z,64.67
2022-10-05T03:08:34.792Z,66.10
2022-10-05T03:13:55.789Z,65.54
2022-10-05T03:19:23.093Z,65.19
2022-10-05T03:24:28.237Z,64.43
2022-10-05T03:29:54.538Z,65.27
2022-10-05T03:35:07.248Z,65.27
2022-10-05T03:40:34.470Z,65.70
2022-10-05T03:45:48.748Z,64.42
2022-10-05T03:51:01.424Z,65.02
2022-10-05T03:56:14.541Z,65.16
2022-10-05T04:01:22.570Z,64.72
2022-10-05T04:06:38.415Z,64.42
2022-10-05T04:12:18.422Z,64.55
2022-10-05T04:17:34.204Z,65.02
2022-10-05T04:22:47.670Z,64.95
2022-10-05T04:28:15.552Z,65.14
2022-10-05T04:33:18.539Z,65.32
2022-10-05T04:39:06.105Z,64.63
2022-10-05T04:44:27.275Z,65.47
2022-10-05T04:49:29.578Z,65.04
2022-10-05T04:54:50.570Z,64.94
2022-10-05T05:00:11.897Z,65.01
2022-10-05T05:05:16.958Z,65.90
2022-10-05T05:10:28.429Z,64.61
2022-10-05T05:15:40.148Z,65.03
2022-10-05T05:20:50.219Z,65.21
2022-10-05T05:26:00.644Z,65.11
2022-10-05T05:31:19.987Z,64.66
2022-10-05T05:36:39.853Z,63.89
2022-10-05T05:41:53.480Z,63.64
2022-10-05T05:47:04.928Z,64.23
2022-10-05T05:52:22.206Z,66.04
2022-10-05T05:57:34.248Z,64.95
2022-10-05T06:02:46.307Z,64.02
2022-10-05T06:07:53.796Z,62.78
2022-10-05T06:13:03.013Z,62.10
2022-10-05T06:18:29.798Z,61.60
2022-10-05T06:23:57.754Z,61.56
2022-10-05T06:29:05.617Z,61.56
2022-10-05T06:34:38.291Z,61.24
2022-10-05T06:40:23.814Z,61.25
2022-10-05T06:45:41.671Z,60.77
2022-10-05T06:50:56.067Z,60.46
2022-10-05T06:56:26.675Z,60.21
2022-10-05T07:02:06.609Z,58.00
2022-10-05T07:07:23.601Z,63.05
2022-10-05T07:12:39.152Z,63.75
2022-10-05T07:18:12.388Z,63.00
2022-10-05T07:23:35.365Z,62.70
2022-10-05T07:29:02.091Z,60.23
2022-10-05T07:34:20.358Z,58.91
2022-10-05T07:40:00.099Z,62.78
2022-10-05T07:45:28.084Z,61.50
2022-10-05T07:50:58.567Z,58.09
2022-10-05T07:56:14.536Z,63.26
2022-10-05T08:01:24.649Z,62.12
2022-10-05T08:06:35.727Z,60.29
2022-10-05T08:11:53.297Z,62.02
2022-10-05T08:17:00.133Z,62.82
2022-10-05T08:22:09.738Z,61.12
2022-10-05T08:27:20.614Z,59.28
2022-10-05T08:32:25.918Z,62.42
2022-10-05T08:37:35.536Z,64.34
2022-10-05T08:42:58.697Z,60.88
2022-10-05T08:48:25.741Z,58.52
2022-10-05T08:53:56.910Z,61.85
2022-10-05T08:59:08.254Z,60.63
2022-10-05T09:04:41.145Z,57.70
2022-10-05T09:09:47.192Z,59.66
2022-10-05T09:15:24.847Z,64.31
2022-10-05T09:20:30.768Z,62.24
2022-10-05T09:26:11.026Z,59.92
2022-10-05T09:31:26.293Z,58.11
2022-10-05T09:36:47.456Z,60.58
2022-10-05T09:42:19.691Z,63.81
2022-10-05T09:47:59.895Z,61.49
2022-10-05T09:53:40.542Z,57.00
2022-10-05T09:59:07.296Z,62.00
2022-10-05T10:04:48.432Z,61.73
2022-10-05T10:09:59.679Z,59.35
2022-10-05T10:15:39.799Z,61.72
2022-10-05T10:21:19.940Z,63.46
2022-10-05T10:26:48.847Z,59.75
2022-10-05T10:32:06.651Z,60.83
2022-10-05T10:37:17.913Z,61.78
2022-10-05T10:42:39.400Z,57.22
2022-10-05T10:48:00.685Z,58.98
2022-10-05T10:53:41.786Z,62.70
2022-10-05T10:59:03.181Z,61.20
2022-10-05T11:04:35.210Z,58.58
2022-10-05T11:10:02.809Z,61.13
2022-10-05T11:15:40.313Z,62.30
2022-10-05T11:20:48.869Z,58.48
2022-10-05T11:26:29.131Z,58.22
2022-10-05T11:32:09.565Z,62.34
2022-10-05T11:37:49.835Z,62.18
2022-10-05T11:43:25.067Z,58.58
2022-10-05T11:48:51.266Z,59.06
2022-10-05T11:54:03.083Z,62.05
2022-10-05T11:59:34.608Z,61.76
2022-10-05T12:05:06.181Z,57.06
2022-10-05T12:10:36.821Z,58.08
2022-10-05T12:16:01.615Z,59.45
2022-10-05T12:21:27.625Z,61.62
2022-10-05T12:26:41.789Z,57.97
2022-10-05T12:32:08.971Z,60.01
2022-10-05T12:37:16.384Z,61.05
2022-10-05T12:42:41.617Z,60.63
2022-10-05T12:47:53.983Z,63.54
2022-10-05T12:53:20.633Z,61.82
2022-10-05T12:58:41.985Z,56.38
2022-10-05T13:04:10.555Z,56.26
2022-10-05T13:09:29.196Z,59.24
2022-10-05T13:14:34.812Z,62.21
2022-10-05T13:20:07.479Z,61.29
2022-10-05T13:25:18.703Z,57.17
2022-10-05T13:30:22.064Z,58.66
2022-10-05T13:35:40.186Z,59.76
2022-10-05T13:40:53.389Z,60.81
2022-10-05T13:46:07.312Z,64.20
2022-10-05T13:51:47.545Z,61.14
2022-10-05T13:56:58.789Z,56.67
2022-10-05T14:02:01.303Z,57.58
2022-10-05T14:07:41.578Z,58.47
2022-10-05T14:12:45.748Z,60.45
2022-10-05T14:17:52.473Z,60.97
2022-10-05T14:22:59.922Z,64.65
2022-10-05T14:28:11.936Z,63.44
2022-10-05T14:33:16.926Z,60.78
2022-10-05T14:38:29.435Z,56.72
2022-10-05T14:43:32.731Z,57.61
2022-10-05T14:48:46.753Z,59.84
2022-10-05T14:54:14.800Z,61.86
2022-10-05T14:59:36.063Z,63.69
2022-10-05T15:04:49.865Z,61.66
2022-10-05T15:10:30.163Z,57.93
2022-10-05T15:16:01.363Z,58.12
2022-10-05T15:21:42.282Z,61.37
2022-10-05T15:26:48.091Z,66.00
2022-10-05T15:32:16.772Z,64.00
2022-10-05T15:37:28.403Z,61.21
2022-10-05T15:42:38.441Z,57.54
2022-10-05T15:48:03.073Z,57.02
2022-10-05T15:53:19.908Z,59.02
2022-10-05T15:58:31.209Z,61.02
2022-10-05T16:04:01.040Z,66.51
2022-10-05T16:09:11.531Z,66.71
2022-10-05T16:14:32.465Z,63.11
2022-10-05T16:19:54.292Z,61.92
2022-10-05T16:25:11.557Z,62.03
2022-10-05T16:30:20.898Z,60.23
2022-10-05T16:35:55.317Z,57.95
2022-10-05T16:41:38.061Z,60.01
2022-10-05T16:46:49.363Z,65.86
2022-10-05T16:51:57.888Z,66.65
2022-10-05T16:57:17.615Z,65.08
2022-10-05T17:02:45.621Z,62.99
2022-10-05T17:08:16.944Z,63.84
2022-10-05T17:13:57.670Z,62.98
2022-10-05T17:19:20.739Z,62.27
2022-10-05T17:24:42.007Z,61.37
2022-10-05T17:29:47.481Z,61.04
2022-10-05T17:35:18.553Z,60.56
2022-10-05T17:40:33.648Z,60.66
2022-10-05T17:45:38.137Z,58.48
2022-10-05T17:51:07.384Z,59.33
2022-10-05T17:56:09.992Z,65.59
2022-10-05T18:01:26.766Z,66.81
2022-10-05T18:06:34.335Z,64.84
2022-10-05T18:11:40.884Z,63.72
2022-10-05T18:17:12.559Z,63.03
2022-10-05T18:22:18.379Z,62.47
2022-10-05T18:27:41.921Z,62.46
2022-10-05T18:32:53.855Z,62.22
2022-10-05T18:38:06.855Z,59.54
2022-10-05T18:43:36.485Z,60.17
2022-10-05T18:48:57.940Z,66.96
2022-10-05T18:54:38.283Z,67.73
2022-10-05T18:59:54.778Z,66.69
2022-10-05T19:05:18.967Z,65.78
2022-10-05T19:11:11.343Z,64.98
2022-10-05T19:16:38.604Z,64.37
2022-10-05T19:22:12.371Z,63.79
2022-10-05T19:27:55.705Z,63.23
2022-10-05T19:33:17.460Z,63.23
2022-10-05T19:38:31.882Z,63.00
2022-10-05T19:43:37.996Z,62.67
2022-10-05T19:48:49.815Z,62.75
2022-10-05T19:54:05.020Z,62.70
2022-10-05T19:59:13.298Z,62.93
2022-10-05T20:04:36.026Z,62.63
2022-10-05T20:10:18.504Z,63.20
2022-10-05T20:15:43.966Z,63.07
2022-10-05T20:20:49.290Z,63.62
2022-10-05T20:26:11.371Z,64.01
2022-10-05T20:31:18.477Z,63.10
2022-10-05T20:36:21.035Z,62.93
2022-10-05T20:41:23.563Z,64.59
2022-10-05T20:46:26.129Z,64.31
2022-10-05T20:51:29.237Z,63.71
2022-10-05T20:56:31.865Z,64.42
2022-10-05T21:01:34.431Z,64.73
2022-10-05T21:06:36.922Z,64.47
2022-10-05T21:11:39.655Z,64.44
2022-10-05T21:16:43.314Z,63.69
2022-10-05T21:21:46.421Z,63.60
2022-10-05T21:26:49.385Z,64.18
2022-10-05T21:31:52.277Z,63.10
2022-10-05T21:36:54.822Z,63.68
2022-10-05T21:41:57.241Z,63.83
2022-10-05T21:47:00.531Z,63.69
2022-10-05T21:52:03.381Z,64.25
2022-10-05T21:57:06.813Z,63.71
2022-10-05T22:02:09.333Z,63.76
2022-10-05T22:07:19.324Z,63.77
2022-10-05T22:12:23.466Z,63.37
2022-10-05T22:17:29.101Z,63.69
2022-10-05T22:22:33.017Z,63.64
2022-10-05T22:27:35.798Z,63.57
2022-10-05T22:32:38.265Z,63.51
2022-10-05T22:37:40.653Z,63.29
2022-10-05T22:42:43.150Z,63.77
2022-10-05T22:47:45.764Z,63.73
2022-10-05T22:52:52.423Z,63.51
2022-10-05T22:57:54.954Z,62.39
2022-10-05T23:02:57.426Z,63.38
2022-10-05T23:08:02.133Z,62.75
2022-10-05T23:13:04.906Z,62.88
2022-10-05T23:18:07.354Z,62.86
2022-10-05T23:23:10.184Z,63.29
2022-10-05T23:28:12.698Z,63.71
2022-10-05T23:33:15.133Z,63.56
2022-10-05T23:38:17.753Z,64.32
2022-10-05T23:43:20.304Z,64.03
2022-10-05T23:48:22.914Z,63.66
2022-10-05T23:53:25.575Z,64.24
2022-10-05T23:58:28.539Z,64.37
